Racecast

Will Raguet-Schofield

Rocky Mountain (ID) · 11 · FRONT RANGECO D5A5A · Compare head to head

Athlete rating 123.9 2026 TF season
Best race 130.7 XC
Races 37
Seasons 4 2023 — 2026

RankedNation #9620·CO #299·CO D5A #196·FRONT RANGE #43·Team #27 ?

Speed rating — all races

Cross Country

XC speed rating

2025 XC 128.8

Rocky Mountain (ID) · Grade 11

Date Meet Event Result Place Rating Difficulty PR/SR Flags
2025-11-22 Toka Sticks Golf Course 5000m 16:01.3 16th · 2nd on team 128.5 +0.009 ★CR CSR
2025-10-10 Spring Canyon Park 5000m 15:59.6 4th · 1st on team 130.7 +0.037 ★CR ★R CSR RSR
2025-09-26 Clement Park 5000m 16:19.9 10th · 1st on team 128.6 +0.030 ★CR CSR
2025-09-13 Heritage High School 5000m 15:40.6 39th · 1st on team 130.3 -0.001 ★PR ★CR R SR CSR RSR
2025-08-30 Fort Collins High School 5000m 16:09 10th · 1st on team 128.9 +0.023 PR ★CR R SR CSR RSR
2025-08-23 Spring Canyon Park 5000m 16:30 3rd · 1st on team 126.0 +0.037 CR SR CSR RSR

2024 XC 123.7

Rocky Mountain (ID) · Grade 10

Date Meet Event Result Place Rating Difficulty PR/SR Flags
2024-11-23 Toka Sticks Golf Course 5000m 16:15.2 23rd · 4th on team 127.4 +0.009 PR CR R SR CSR RSR
2024-11-02 Norris Penrose Event Center 5000m 17:42.9 132nd · 6th on team 122.4 +0.067 ★CR CSR
2024-10-24 Spring Canyon Park 5000m 16:48 16th · 3rd on team 126.7 +0.037 PR CR R SR CSR RSR
2024-10-04 Northwest Open Space 5000m 16:54.1 50th · 5th on team 124.2 +0.020 ★CR R CSR RSR
2024-09-14 Heritage High School 5000m 16:50.3 117th · 6th on team 123.2 -0.001 PR CR R SR CSR RSR
2024-09-06 Margaret W. Carpenter Recreation Center 5000m 17:33 1st · 1st on team 118.1 +0.014 PR ★CR SR CSR RSR

2023 XC 113.7

Rocky Mountain (ID) · Grade 9

Date Meet Event Result Place Rating Difficulty PR/SR Flags
2023-11-18 Coyote Run Golf Course at Leisure World 5000m 17:54.1 141st · 4th on team 117.9 +0.029 PR ★CR R SR CSR RSR
2023-10-28 Norris Penrose Event Center 5000m 18:22.2 147th · 4th on team 117.7 +0.067 CR R CSR RSR
2023-10-19 Fairgrounds Park 5000m 18:44 38th · 5th on team 115.4 +0.049 ★CR CSR
2023-10-03 Northwest Open Space 5000m 18:04 7th · 1st on team 116.2 +0.020 PR CR R SR CSR RSR
2023-09-09 Heritage High School 5000m 18:12.4 11th · 2nd on team 114.2 -0.001 PR CR R SR CSR RSR
2023-09-03 Little America Golf Course 5000m 19:32.9 114th · 9th on team 111.9 +0.065 ★CR R CSR RSR
2023-08-26 Fort Collins High School 5000m 18:49 7th · 2nd on team 110.1 +0.023 PR CR R SR CSR RSR
2023-08-19 Spring Canyon Park 5000m 20:27 72nd · 10th on team 105.7 +0.037 PR CR R SR CSR RSR

Track & Field

TF speed rating

2026 TF 121.5

Rocky Mountain (ID) · Grade 11

Date Meet Event Result Place Rating Difficulty PR/SR Flags
2026-04-29 Longs Peak and Northern Conference Championships 3200m 10:18.21 10th · 1st on team 120.6 -0.014
2026-04-24 Longmont Invitational 3200m 10:20.82 10th · 1st on team 120.0 -0.015
2026-04-10 The Pomona Invitational 3200m 10:02.28 23rd · 1st on team 124.2 -0.011 SR RSR
2026-04-10 Pomona Invite 3200m 10:02.28 23rd · 1st on team 124.2 -0.011
2026-04-04 Altitude Running Invitational 1600m 4:38.58 15th · 1st on team 123.7 -0.012 ★PR SR RSR
2026-03-27 Roosevelt Power Meet Invitational 1600m 4:43.59 15th · 2nd on team 121.2 -0.014
2026-03-21 Runners Roost of Fort Collins Invitational 800m 2:08.29 14th · 1st on team 120.2 -0.012 ★PR SR
2026-03-07 John Martin Early Bird Invite 800m 2:10.5 10th · 1st on team 118.3 -0.011 PR SR RSR
2026-03-07 John Martin Early Bird Invite 1600m 4:43.55 6th · 2nd on team 121.6 -0.011 SR RSR

2025 TF 122.6

Rocky Mountain (ID) · Grade 10

Date Meet Event Result Place Rating Difficulty PR/SR Flags
2025-04-30 Northern Conference League Meet 1600m 4:41.53 18th · 5th on team 122.6 -0.008 PR SR
2025-04-30 Northern Conference League Meet 3200m 10:06.46 9th · 3rd on team 123.6 -0.008
2025-04-05 Altitude Running Invite 3200m 9:56.31 13th · 1st on team 124.8 -0.012 ★PR SR RSR
2025-03-15 Murray Kula Invitational 3200m 10:27.49 17th · 2nd on team 119.3 -0.008 SR RSR

2024 TF 115.0

Rocky Mountain (ID) · Grade 9

Date Meet Event Result Place Rating Difficulty PR/SR Flags
2024-05-03 Front Range League Championships 3200m 10:22.94 18th · 2nd on team 120.1 -0.009 PR R SR RSR
2024-03-22 Race results → 1600m 4:57.75 26th · 3rd on team 113.8 PR SR
2024-03-22 Race results → 800m 2:15.48 53rd · 2nd on team 112.2 PR SR
2024-02-24 PEAK Pre-Season #2 1600m 5:03.07 74th · 52nd on team 113.8 -0.009 PR SR RSR